createdAt,value
2022-11-04T00:01:02.467Z,10.14
2022-11-04T00:04:04.787Z,10.13
2022-11-04T00:07:26.636Z,10.09
2022-11-04T00:10:49.057Z,10.07
2022-11-04T00:13:51.282Z,10.01
2022-11-04T00:17:11.905Z,9.99
2022-11-04T00:20:32.393Z,10.00
2022-11-04T00:23:53.398Z,10.03
2022-11-04T00:27:14.179Z,9.99
2022-11-04T00:30:16.414Z,9.98
2022-11-04T00:33:27.627Z,9.94
2022-11-04T00:36:29.804Z,9.93
2022-11-04T00:39:31.701Z,9.96
2022-11-04T00:42:33.896Z,9.95
2022-11-04T00:45:35.802Z,9.93
2022-11-04T00:48:37.963Z,9.91
2022-11-04T00:51:40.112Z,9.91
2022-11-04T00:54:42.424Z,9.93
2022-11-04T00:57:44.358Z,9.93
2022-11-04T01:00:46.510Z,9.91
2022-11-04T01:03:49.742Z,9.96
2022-11-04T01:06:51.922Z,9.94
2022-11-04T01:09:53.824Z,9.88
2022-11-04T01:12:56.005Z,9.77
2022-11-04T01:16:01.825Z,10.06
2022-11-04T01:19:04.212Z,9.93
2022-11-04T01:22:06.098Z,10.04
2022-11-04T01:25:08.770Z,10.02
2022-11-04T01:28:10.967Z,10.00
2022-11-04T01:31:14.852Z,10.10
2022-11-04T01:34:16.760Z,10.17
2022-11-04T01:37:19.046Z,10.16
2022-11-04T01:40:20.935Z,10.21
2022-11-04T01:43:23.676Z,10.19
2022-11-04T01:46:25.512Z,10.30
2022-11-04T01:49:30.376Z,10.24
2022-11-04T01:52:50.748Z,10.25
2022-11-04T01:55:55.804Z,10.30
2022-11-04T01:59:00.314Z,10.27
2022-11-04T02:02:02.887Z,10.19
2022-11-04T02:05:05.379Z,10.27
2022-11-04T02:08:08.216Z,10.25
2022-11-04T02:11:11.435Z,10.22
2022-11-04T02:14:13.371Z,10.17
2022-11-04T02:17:18.712Z,10.22
2022-11-04T02:20:27.415Z,10.16
2022-11-04T02:23:48.504Z,10.10
2022-11-04T02:27:08.620Z,10.09
2022-11-04T02:30:15.458Z,10.14
2022-11-04T02:33:21.041Z,10.06
2022-11-04T02:36:32.362Z,9.96
2022-11-04T02:39:49.678Z,10.02
2022-11-04T02:43:02.922Z,10.17
2022-11-04T02:46:07.820Z,10.20
2022-11-04T02:49:15.807Z,10.08
2022-11-04T02:52:20.439Z,10.05
2022-11-04T02:55:32.641Z,9.97
2022-11-04T02:58:40.638Z,10.05
2022-11-04T03:01:45.252Z,10.11
2022-11-04T03:04:50.490Z,10.05
2022-11-04T03:07:55.561Z,10.12
2022-11-04T03:11:03.540Z,10.02
2022-11-04T03:14:08.372Z,10.01
2022-11-04T03:17:18.152Z,9.94
2022-11-04T03:20:25.508Z,10.02
2022-11-04T03:23:27.513Z,10.10
2022-11-04T03:26:53.522Z,10.08
2022-11-04T03:29:58.323Z,10.04
2022-11-04T03:33:05.243Z,10.04
2022-11-04T03:36:08.744Z,9.98
2022-11-04T03:39:10.946Z,9.96
2022-11-04T03:42:23.151Z,10.00
2022-11-04T03:45:25.948Z,9.93
2022-11-04T03:48:28.534Z,9.92
2022-11-04T03:51:30.719Z,9.86
2022-11-04T03:54:35.696Z,9.80
2022-11-04T03:57:43.882Z,9.80
2022-11-04T04:00:50.409Z,9.82
2022-11-04T04:03:59.276Z,9.85
2022-11-04T04:07:04.100Z,9.84
2022-11-04T04:10:32.477Z,9.75
2022-11-04T04:13:34.334Z,9.71
2022-11-04T04:16:42.349Z,9.58
2022-11-04T04:19:47.256Z,9.59
2022-11-04T04:22:54.939Z,9.53
2022-11-04T04:26:19.342Z,9.47
2022-11-04T04:29:22.421Z,9.47
2022-11-04T04:32:25.946Z,9.43
2022-11-04T04:35:41.916Z,9.47
2022-11-04T04:39:02.822Z,9.50
2022-11-04T04:42:24.954Z,9.49
2022-11-04T04:45:27.122Z,9.51
2022-11-04T04:48:30.071Z,9.50
2022-11-04T04:51:32.386Z,9.45
2022-11-04T04:54:34.585Z,9.47
2022-11-04T04:57:36.543Z,9.47
2022-11-04T05:00:38.797Z,9.47
2022-11-04T05:03:44.944Z,9.44
2022-11-04T05:06:47.739Z,9.42
2022-11-04T05:09:49.648Z,9.45
2022-11-04T05:13:10.863Z,9.49
2022-11-04T05:16:13.223Z,9.50
2022-11-04T05:19:15.417Z,9.36
2022-11-04T05:22:17.407Z,9.38
2022-11-04T05:25:19.637Z,9.45
2022-11-04T05:28:21.533Z,9.32
2022-11-04T05:31:23.933Z,9.44
2022-11-04T05:34:26.177Z,9.42
2022-11-04T05:37:28.433Z,9.39
2022-11-04T05:40:30.478Z,9.24
2022-11-04T05:43:33.148Z,9.13
2022-11-04T05:46:35.078Z,9.11
2022-11-04T05:49:37.409Z,9.10
2022-11-04T05:52:39.329Z,9.09
2022-11-04T05:55:41.495Z,9.04
2022-11-04T05:58:43.420Z,9.04
2022-11-04T06:01:45.980Z,9.06
2022-11-04T06:04:48.256Z,9.07
2022-11-04T06:07:50.143Z,9.03
2022-11-04T06:10:52.366Z,8.93
2022-11-04T06:13:55.422Z,8.93
2022-11-04T06:16:57.719Z,8.90
2022-11-04T06:19:59.830Z,8.88
2022-11-04T06:23:01.985Z,8.89
2022-11-04T06:26:04.552Z,8.92
2022-11-04T06:29:06.791Z,8.89
2022-11-04T06:32:13.298Z,8.95
2022-11-04T06:35:15.542Z,8.96
2022-11-04T06:38:17.474Z,8.98
2022-11-04T06:41:19.889Z,8.91
2022-11-04T06:44:24.124Z,8.86
2022-11-04T06:47:26.399Z,8.81
2022-11-04T06:50:28.436Z,8.82
2022-11-04T06:53:31.415Z,8.91
2022-11-04T06:56:33.368Z,8.98
2022-11-04T06:59:35.616Z,9.11
2022-11-04T07:02:38.762Z,9.20
2022-11-04T07:05:41.862Z,9.17
2022-11-04T07:08:43.783Z,9.07
2022-11-04T07:11:46.179Z,9.07
2022-11-04T07:14:48.442Z,9.11
2022-11-04T07:17:50.914Z,9.14
2022-11-04T07:20:53.126Z,9.16
2022-11-04T07:23:55.314Z,9.15
2022-11-04T07:26:57.490Z,9.21
2022-11-04T07:29:59.865Z,9.11
2022-11-04T07:33:01.794Z,8.99
2022-11-04T07:36:08.852Z,8.95
2022-11-04T07:39:11.265Z,8.89
2022-11-04T07:42:13.493Z,8.98
2022-11-04T07:45:15.497Z,9.01
2022-11-04T07:48:18.247Z,9.05
2022-11-04T07:51:20.874Z,9.05
2022-11-04T07:54:23.063Z,9.04
2022-11-04T07:57:24.991Z,8.99
2022-11-04T08:00:27.275Z,8.97
2022-11-04T08:03:29.562Z,9.01
2022-11-04T08:06:31.949Z,9.07
2022-11-04T08:09:34.182Z,9.18
2022-11-04T08:12:40.361Z,9.17
2022-11-04T08:15:42.612Z,9.25
2022-11-04T08:18:44.733Z,9.21
2022-11-04T08:21:47.325Z,9.16
2022-11-04T08:24:49.548Z,9.16
2022-11-04T08:27:56.676Z,9.16
2022-11-04T08:31:05.409Z,9.20
2022-11-04T08:34:08.572Z,9.34
2022-11-04T08:37:13.557Z,9.42
2022-11-04T08:40:15.845Z,9.45
2022-11-04T08:43:17.766Z,9.48
2022-11-04T08:46:20.167Z,9.41
2022-11-04T08:49:22.218Z,9.38
2022-11-04T08:52:24.449Z,9.44
2022-11-04T08:55:28.884Z,9.42
2022-11-04T08:58:31.147Z,9.44
2022-11-04T09:01:35.979Z,9.51
2022-11-04T09:04:39.516Z,9.61
2022-11-04T09:07:42.910Z,9.71
2022-11-04T09:10:46.467Z,9.69
2022-11-04T09:13:48.348Z,9.69
2022-11-04T09:16:50.540Z,9.59
2022-11-04T09:19:52.452Z,9.34
2022-11-04T09:22:56.095Z,9.11
2022-11-04T09:25:58.808Z,8.89
2022-11-04T09:29:01.133Z,8.81
2022-11-04T09:32:03.691Z,8.85
2022-11-04T09:35:06.273Z,8.99
2022-11-04T09:38:10.568Z,8.98
2022-11-04T09:41:36.666Z,9.01
2022-11-04T09:45:19.489Z,8.93
2022-11-04T09:48:17.807Z,8.93
2022-11-04T09:51:40.241Z,8.81
2022-11-04T09:54:47.270Z,8.83
2022-11-04T09:58:00.309Z,8.89
2022-11-04T10:01:15.134Z,8.95
2022-11-04T10:04:20.697Z,8.95
2022-11-04T10:07:35.025Z,8.96
2022-11-04T10:10:56.378Z,8.98
2022-11-04T10:14:11.714Z,8.88
2022-11-04T10:17:13.920Z,8.85
2022-11-04T10:20:23.922Z,8.81
2022-11-04T10:23:48.269Z,8.81
2022-11-04T10:27:07.149Z,8.75
2022-11-04T10:30:18.451Z,8.73
2022-11-04T10:33:22.824Z,8.77
2022-11-04T10:36:26.054Z,8.65
2022-11-04T10:39:30.032Z,8.67
2022-11-04T10:42:36.522Z,8.88
2022-11-04T10:46:03.255Z,8.82
2022-11-04T10:49:26.182Z,8.73
2022-11-04T10:52:28.303Z,8.86
2022-11-04T10:55:57.863Z,8.85
2022-11-04T10:59:20.065Z,8.89
2022-11-04T11:02:41.657Z,8.99
2022-11-04T11:05:43.718Z,9.12
2022-11-04T11:08:46.179Z,9.32
2022-11-04T11:11:49.458Z,9.29
2022-11-04T11:14:51.688Z,9.32
2022-11-04T11:17:59.641Z,9.38
2022-11-04T11:21:08.456Z,9.44
2022-11-04T11:24:16.804Z,9.52
2022-11-04T11:27:22.687Z,9.63
2022-11-04T11:30:29.381Z,9.53
2022-11-04T11:33:33.273Z,9.45
2022-11-04T11:36:37.456Z,9.57
2022-11-04T11:39:43.520Z,9.56
2022-11-04T11:42:45.436Z,9.67
2022-11-04T11:45:49.768Z,9.78
2022-11-04T11:49:00.908Z,9.89
2022-11-04T11:52:28.393Z,9.90
2022-11-04T11:55:34.793Z,10.16
2022-11-04T12:02:04.938Z,10.28
2022-11-04T12:12:25.320Z,10.49
2022-11-04T12:15:27.155Z,10.70
2022-11-04T12:18:49.843Z,10.72
2022-11-04T12:22:00.443Z,10.86
2022-11-04T12:25:04.970Z,10.75
2022-11-04T12:28:22.283Z,10.94
2022-11-04T12:31:37.596Z,11.01
2022-11-04T12:34:49.032Z,11.03
2022-11-04T12:38:03.544Z,11.17
2022-11-04T12:41:37.658Z,11.07
2022-11-04T12:44:37.229Z,11.21
2022-11-04T12:47:43.780Z,11.31
2022-11-04T12:51:08.622Z,11.15
2022-11-04T12:54:13.715Z,11.18
2022-11-04T12:57:45.689Z,11.31
2022-11-04T13:00:51.610Z,11.32
2022-11-04T13:03:58.712Z,11.27
2022-11-04T13:07:08.680Z,11.23
2022-11-04T13:10:26.872Z,11.33
2022-11-04T13:13:37.640Z,11.47
2022-11-04T13:16:42.096Z,11.34
2022-11-04T13:19:47.557Z,11.48
2022-11-04T13:22:51.718Z,11.44
2022-11-04T13:25:54.003Z,11.40
2022-11-04T13:29:08.316Z,11.45
2022-11-04T13:32:16.293Z,11.38
2022-11-04T13:35:18.587Z,11.27
2022-11-04T13:38:25.449Z,11.32
2022-11-04T13:41:49.603Z,11.33
2022-11-04T13:44:53.226Z,11.20
2022-11-04T13:47:58.220Z,11.35
2022-11-04T13:51:02.477Z,11.38
2022-11-04T13:54:05.523Z,11.36
2022-11-04T13:57:21.772Z,11.30
2022-11-04T14:00:24.192Z,11.23
2022-11-04T14:03:29.640Z,11.33
2022-11-04T14:06:51.676Z,11.28
2022-11-04T14:09:54.533Z,11.16
2022-11-04T14:13:16.416Z,11.15
2022-11-04T14:16:25.219Z,11.06
2022-11-04T14:19:45.739Z,11.17
2022-11-04T14:22:57.332Z,11.10
2022-11-04T14:26:04.598Z,11.19
2022-11-04T14:29:09.527Z,11.16
2022-11-04T14:32:12.559Z,11.31
2022-11-04T14:35:18.201Z,11.24
2022-11-04T14:38:24.460Z,11.21
2022-11-04T14:41:45.509Z,11.19
2022-11-04T14:44:50.438Z,11.12
2022-11-04T14:47:55.327Z,11.04
2022-11-04T14:50:57.886Z,11.15
2022-11-04T14:54:04.912Z,11.30
2022-11-04T14:57:14.055Z,11.15
2022-11-04T15:00:22.413Z,11.28
2022-11-04T15:07:02.066Z,11.10
2022-11-04T15:10:20.725Z,11.18
2022-11-04T15:13:22.924Z,11.20
2022-11-04T15:16:29.946Z,11.02
2022-11-04T15:19:33.349Z,11.04
2022-11-04T15:22:35.759Z,11.02
2022-11-04T15:25:43.799Z,10.98
2022-11-04T15:28:47.353Z,10.95
2022-11-04T15:31:56.842Z,11.02
2022-11-04T15:34:59.528Z,10.82
2022-11-04T15:38:03.682Z,10.83
2022-11-04T15:41:25.703Z,10.74
2022-11-04T15:44:29.492Z,10.70
2022-11-04T15:47:31.414Z,10.70
2022-11-04T15:50:33.674Z,10.68
2022-11-04T15:53:45.267Z,10.65
2022-11-04T15:56:50.826Z,10.66
2022-11-04T15:59:59.112Z,10.66
2022-11-04T16:03:01.647Z,10.59
2022-11-04T16:06:05.437Z,10.55
2022-11-04T16:09:27.653Z,10.59
2022-11-04T16:12:35.261Z,10.57
2022-11-04T16:15:42.243Z,10.63
2022-11-04T16:18:52.444Z,10.58
2022-11-04T16:22:03.081Z,10.60
2022-11-04T16:25:06.467Z,10.68
2022-11-04T16:28:18.461Z,10.68
2022-11-04T16:31:20.603Z,10.72
2022-11-04T16:34:22.784Z,10.74
2022-11-04T16:37:26.089Z,10.60
2022-11-04T16:40:28.100Z,10.61
2022-11-04T16:43:30.317Z,10.56
2022-11-04T16:46:33.678Z,10.54
2022-11-04T16:49:35.904Z,10.53
2022-11-04T16:52:43.076Z,10.70
2022-11-04T16:55:47.503Z,10.65
2022-11-04T16:58:49.526Z,10.61
2022-11-04T17:01:51.957Z,10.55
2022-11-04T17:04:54.667Z,10.54
2022-11-04T17:08:04.344Z,10.54
2022-11-04T17:11:07.490Z,10.54
2022-11-04T17:14:09.661Z,10.66
2022-11-04T17:17:11.700Z,10.65
2022-11-04T17:20:16.692Z,10.59
2022-11-04T17:23:18.757Z,10.66
2022-11-04T17:26:20.965Z,10.63
2022-11-04T17:29:22.862Z,10.60
2022-11-04T17:32:25.398Z,10.65
2022-11-04T17:35:27.829Z,10.73
2022-11-04T17:38:30.048Z,10.71
2022-11-04T17:41:50.808Z,10.68
2022-11-04T17:44:52.973Z,10.69
2022-11-04T17:47:55.536Z,10.78
2022-11-04T17:50:57.722Z,10.84
2022-11-04T17:53:59.626Z,10.97
2022-11-04T17:57:01.988Z,10.86
2022-11-04T18:00:05.827Z,10.84
2022-11-04T18:03:08.942Z,10.79
2022-11-04T18:06:11.496Z,10.95
2022-11-04T18:09:15.605Z,10.84
2022-11-04T18:12:36.103Z,10.75
2022-11-04T18:15:38.377Z,10.70
2022-11-04T18:18:40.405Z,10.64
2022-11-04T18:21:42.727Z,10.85
2022-11-04T18:24:45.004Z,10.58
2022-11-04T18:27:49.053Z,10.48
2022-11-04T18:30:50.964Z,10.48
2022-11-04T18:33:53.280Z,10.34
2022-11-04T18:36:56.788Z,10.41
2022-11-04T18:39:58.972Z,10.31
2022-11-04T18:43:07.544Z,10.28
2022-11-04T18:46:12.096Z,10.34
2022-11-04T18:49:14.499Z,10.43
2022-11-04T18:52:16.650Z,10.38
2022-11-04T18:55:18.602Z,10.49
2022-11-04T18:58:20.824Z,10.41
2022-11-04T19:01:25.029Z,10.43
2022-11-04T19:04:27.319Z,10.55
2022-11-04T19:07:29.217Z,10.59
2022-11-04T19:10:31.379Z,10.53
2022-11-04T19:13:33.308Z,10.76
2022-11-04T19:16:35.708Z,10.71
2022-11-04T19:19:37.630Z,10.76
2022-11-04T19:22:40.113Z,10.81
2022-11-04T19:25:42.028Z,10.79
2022-11-04T19:28:48.499Z,10.85
2022-11-04T19:31:50.843Z,11.01
2022-11-04T19:34:53.036Z,10.91
2022-11-04T19:37:55.261Z,10.81
2022-11-04T19:41:01.758Z,10.84
2022-11-04T19:44:06.114Z,10.91
2022-11-04T19:47:08.962Z,10.99
2022-11-04T19:50:10.956Z,10.90
2022-11-04T19:53:13.560Z,11.14
2022-11-04T19:56:16.018Z,10.97
2022-11-04T19:59:18.984Z,10.94
2022-11-04T20:02:21.699Z,10.88
2022-11-04T20:05:24.051Z,10.82
2022-11-04T20:08:25.968Z,10.90
2022-11-04T20:11:28.138Z,11.00
2022-11-04T20:14:30.103Z,11.08
2022-11-04T20:17:33.200Z,11.08
2022-11-04T20:20:35.563Z,10.90
2022-11-04T20:23:37.761Z,11.03
2022-11-04T20:26:40.813Z,10.98
2022-11-04T20:29:43.177Z,11.01
2022-11-04T20:32:45.212Z,11.02
2022-11-04T20:35:47.392Z,10.95
2022-11-04T20:38:49.326Z,10.89
2022-11-04T20:41:51.840Z,10.77
2022-11-04T20:44:53.783Z,10.61
2022-11-04T20:47:55.936Z,10.58
2022-11-04T20:50:57.848Z,10.55
2022-11-04T20:54:01.406Z,10.49
2022-11-04T20:57:03.324Z,10.44
2022-11-04T21:00:08.640Z,10.48
2022-11-04T21:03:10.504Z,10.49
2022-11-04T21:06:12.962Z,10.49
2022-11-04T21:09:15.693Z,10.58
2022-11-04T21:12:18.995Z,10.39
2022-11-04T21:15:39.613Z,10.48
2022-11-04T21:18:41.919Z,10.40
2022-11-04T21:21:44.559Z,10.31
2022-11-04T21:24:46.735Z,10.36
2022-11-04T21:27:48.736Z,10.26
2022-11-04T21:30:51.648Z,10.31
2022-11-04T21:33:53.817Z,10.40
2022-11-04T21:36:55.996Z,10.36
2022-11-04T21:39:57.980Z,10.41
2022-11-04T21:43:00.259Z,10.43
2022-11-04T21:46:03.072Z,10.55
2022-11-04T21:49:05.380Z,10.60
2022-11-04T21:52:07.272Z,10.63
2022-11-04T21:55:09.619Z,10.54
2022-11-04T21:58:11.717Z,10.63
2022-11-04T22:01:17.948Z,10.64
2022-11-04T22:04:20.190Z,10.64
2022-11-04T22:07:42.108Z,10.67
2022-11-04T22:10:44.633Z,10.63
2022-11-04T22:13:46.518Z,10.60
2022-11-04T22:16:48.782Z,10.56
2022-11-04T22:19:50.692Z,10.57
2022-11-04T22:22:52.898Z,10.51
2022-11-04T22:26:05.214Z,10.45
2022-11-04T22:29:07.698Z,10.27
2022-11-04T22:32:09.617Z,10.22
2022-11-04T22:35:11.792Z,10.19
2022-11-04T22:38:13.733Z,10.10
2022-11-04T22:41:18.507Z,10.01
2022-11-04T22:44:20.619Z,9.93
2022-11-04T22:47:22.810Z,9.91
2022-11-04T22:50:24.732Z,9.83
2022-11-04T22:53:27.064Z,9.76
2022-11-04T22:56:29.313Z,9.68
2022-11-04T22:59:31.490Z,9.59
2022-11-04T23:02:36.949Z,9.65
2022-11-04T23:05:39.605Z,9.66
2022-11-04T23:08:42.325Z,9.60
2022-11-04T23:12:03.279Z,9.62
2022-11-04T23:15:23.925Z,9.62
2022-11-04T23:18:41.611Z,9.61
2022-11-04T23:22:02.097Z,9.60
2022-11-04T23:25:09.607Z,9.57
2022-11-04T23:28:30.412Z,9.50
2022-11-04T23:31:32.623Z,9.45
2022-11-04T23:34:53.356Z,9.45
2022-11-04T23:37:59.000Z,9.51
2022-11-04T23:41:21.300Z,9.48
2022-11-04T23:44:42.086Z,9.48
2022-11-04T23:48:03.848Z,9.49
2022-11-04T23:51:24.536Z,9.40
2022-11-04T23:54:45.187Z,9.37
2022-11-04T23:58:05.800Z,9.35
